LFSBLFST

Guest
Details From LFSB - Bale-Mulhouse
To LFST - Entzheim
Flight Number -
Tags decoded
Created
Modified
Stats Distance 92 nm / 170 km
Max Altitude 0 ft / 0 m
Waypoints 3
Social Downloads 0
Likes 0
Share VATSIM

Download

Looking for another format? Having issues loading an existing format? Contact us
Advertisement - Login to hide

Notes

Requested: LFSB MIRGU LFST

Route

LFSB MIRGU LFST

ID Type Via Altitude Latitude Longitude Leg Dist Tot Dist Heading (true) Name
O LFSB APT - 0 ft / 0 m 47.59581˚ 7.52481˚ - 0 nm - Bale-Mulhouse
MIRGU FIX - 0 ft / 0 m 48.01917˚ 6.67889˚ 42 nm 42 nm 307° / 306° -
O LFST APT - 0 ft / 0 m 48.53833˚ 7.62826˚ 49 nm 91 nm 50° / 51° Entzheim

Altitude Profile

Advertisement - Login to hide

LFSB

Details ICAO LFSB (MLH)
Name Bale-Mulhouse
Region France
Timezone Europe/Paris (UTC+1.0)
Stats Elevation 885 ft / 270 m (AMSL)
Location 47.595810° 7.524806°
Runways 2
Magnetic Variation 2.085° E

METAR

LFSB 161830Z 25009KT 9999 FEW010 BKN120 BKN140 02/00 Q1017 NOSIG

Decode

TAF

TAF LFSB 161700Z 1618/1718 25008KT 9999 SCT020 BKN040 PROB40 TEMPO 1620/1706 4000 -SNRA PROB30 TEMPO 1702/1706 2000 -SN BKN012

Decode

Departure Runways

ID Width Length Bearing (true) Bearing (mag) Surface Threshold Offset Overrun Length
08 193 ft / 59 m 5,956 ft / 1,816 m 76.91° 74.82° Concrete 0 ft / 0 m 0 ft / 0 m
15 197 ft / 60 m 12,802 ft / 3,902 m 154.86° 152.77° Concrete 0 ft / 0 m 0 ft / 0 m
26 193 ft / 59 m 5,956 ft / 1,816 m 256.93° 254.84° Concrete 722 ft / 220 m 0 ft / 0 m
33 197 ft / 60 m 12,802 ft / 3,902 m 334.88° 332.79° Concrete 3,675 ft / 1,120 m 0 ft / 0 m

LFST

Details ICAO LFST (SXB)
Name Entzheim
Region France
Timezone Europe/Paris (UTC+1.0)
Stats Elevation 504 ft / 154 m (AMSL)
Location 48.538335° 7.628265°
Runways 1
Magnetic Variation 2.105° E

METAR

LFST 161830Z AUTO 24004KT 9999 BKN027 BKN035 BKN058 02/00 Q1017 TEMPO 30010KT 4000 -SHRASN BKN012

Decode

TAF

TAF LFST 161700Z 1618/1718 VRB04KT 9999 BKN035 PROB40 TEMPO 1618/1621 30010KT 4000 -SHRASN BKN012

Decode

Destination Runways

ID Width Length Bearing (true) Bearing (mag) Surface Threshold Offset Overrun Length
05 148 ft / 45 m 7,899 ft / 2,408 m 48.60° 46.50° Asphalt 0 ft / 0 m 860 ft / 262 m
23 148 ft / 45 m 7,899 ft / 2,408 m 228.62° 226.52° Asphalt 0 ft / 0 m 902 ft / 275 m

Approach Navaids

Runway Type Ident Frequency Range Bearing (true) Bearing (mag) Slope Elevation
05 Localiser ENT 108.55 MHz 18 nm / 33 km 48.63° 46.53° - 499 ft / 152 m (AMSL)
05 Glidescope ENT 108.55 MHz 10 nm / 19 km 48.61° 46.51° 3.50° 561 ft / 171 m (AMSL)
05 DME ENT 108.55 MHz 18 nm / 33 km - - - 504 ft / 154 m (AMSL)
23 Localiser STZ 109.55 MHz 18 nm / 33 km 228.59° 226.49° - 515 ft / 157 m (AMSL)
23 Glidescope STZ 109.55 MHz 10 nm / 19 km 228.61° 226.51° 3.00° 542 ft / 165 m (AMSL)
23 DME STZ 109.55 MHz 18 nm / 33 km - - - 504 ft / 154 m (AMSL)

Popular Alternatives